Herenthout, Belgium
Current Conditions -  °F | °C
As of 2:20 AM on Friday 28 Nov 2014 (Local Time) from EBAW Reporting Station
Broken Clouds Broken Clouds  
Wind Chill: 45°   Ceiling: 1000
Heat Index: 48°   Visibility: 4mi
Dew Point: 45°   Wind: 8mph
Humidity: 87%   Direction: 100°E
Pressure: 29.68"   Gusts: NA
Location:  51.14°N, 4.76°E
Report Text: EBAW 280120Z AUTO 10007KT 6000 FEW008/// BKN010/// BKN045/// 09/07 Q1005
Loading
Personal Weather Stations






























Interactive Weather Map New forecast layout! Learn more

10-Day Weather Forecast

Advertisements
Track Severe Weather on mobile